Time,TemperatureF,DewpointF,PressureIn,WindDirection,WindDirectionDegrees,WindSpeedMPH,WindSpeedGustMPH,Humidity,HourlyPrecipIn,Conditions,Clouds,dailyrainin,SoftwareType,DateUTC
2013-05-26 00:02:00,72.0,71.0,30.02,South,180,6.0,6.0,96,0.00,,,0.00,,2013-05-26 05:02:00,
2013-05-26 00:12:00,72.0,71.0,30.02,South,180,6.0,6.0,96,0.00,,,0.00,,2013-05-26 05:12:00,
2013-05-26 00:22:00,71.0,70.0,30.02,East,98,6.0,6.0,96,0.00,,,0.00,,2013-05-26 05:22:00,
2013-05-26 00:32:00,71.0,70.0,30.02,SE,145,6.0,6.0,97,0.00,,,0.00,,2013-05-26 05:32:00,
2013-05-26 00:42:00,71.0,70.0,30.02,SE,145,6.0,6.0,97,0.00,,,0.00,,2013-05-26 05:42:00,
2013-05-26 00:52:00,70.0,69.0,30.02,SSE,159,6.0,6.0,97,0.00,,,0.00,,2013-05-26 05:52:00,
2013-05-26 01:01:00,71.0,70.0,30.03,SSE,162,5.0,7.0,97,0.00,,,0.00,,2013-05-26 06:01:00,
2013-05-26 01:12:00,71.0,70.0,30.03,SSE,162,5.0,7.0,97,0.00,,,0.00,,2013-05-26 06:12:00,
2013-05-26 01:21:00,70.0,69.0,30.03,SE,139,3.0,3.0,97,0.00,,,0.00,,2013-05-26 06:21:00,
2013-05-26 01:32:00,70.0,69.0,30.04,ESE,115,0.0,0.0,98,0.00,,,0.00,,2013-05-26 06:32:00,
2013-05-26 01:42:00,70.0,69.0,30.04,ESE,115,0.0,0.0,98,0.00,,,0.00,,2013-05-26 06:42:00,
2013-05-26 01:52:00,71.0,70.0,30.04,ESE,115,0.0,0.0,97,0.00,,,0.00,,2013-05-26 06:52:00,
2013-05-26 02:01:00,71.0,70.0,30.05,South,176,0.0,0.0,98,0.00,,,0.00,,2013-05-26 07:01:00,
2013-05-26 02:11:00,71.0,70.0,30.05,South,176,0.0,0.0,98,0.00,,,0.00,,2013-05-26 07:11:00,
2013-05-26 02:21:00,71.0,70.0,30.05,NW,326,2.0,2.0,98,0.00,,,0.00,,2013-05-26 07:21:00,
2013-05-26 02:31:00,71.0,70.0,30.04,NNW,333,0.0,0.0,98,0.00,,,0.00,,2013-05-26 07:31:00,
2013-05-26 02:42:00,71.0,70.0,30.04,NNW,333,0.0,0.0,98,0.00,,,0.00,,2013-05-26 07:42:00,
2013-05-26 02:52:00,71.0,70.0,30.03,NNW,333,0.0,0.0,98,0.00,,,0.00,,2013-05-26 07:52:00,
2013-05-26 03:01:00,70.0,69.0,30.03,NNW,333,0.0,0.0,98,0.00,,,0.00,,2013-05-26 08:01:00,
2013-05-26 03:11:00,70.0,69.0,30.03,NNW,333,0.0,0.0,98,0.00,,,0.00,,2013-05-26 08:11:00,
2013-05-26 03:21:00,70.0,70.0,30.03,NNW,333,0.0,0.0,99,0.00,,,0.00,,2013-05-26 08:21:00,
2013-05-26 03:32:00,70.0,70.0,30.02,NNW,333,0.0,0.0,99,0.00,,,0.00,,2013-05-26 08:32:00,
2013-05-26 03:42:00,70.0,70.0,30.02,NNW,333,0.0,0.0,99,0.00,,,0.00,,2013-05-26 08:42:00,
2013-05-26 03:53:00,70.0,70.0,30.02,SSW,198,0.0,1.0,100,0.00,,,0.00,,2013-05-26 08:53:00,
2013-05-26 04:01:00,69.0,69.0,30.01,SE,135,1.0,1.0,100,0.03,,,0.00,,2013-05-26 09:01:00,
2013-05-26 04:11:00,69.0,69.0,29.99,SE,125,5.0,8.0,100,0.03,,,0.00,,2013-05-26 09:11:00,
2013-05-26 04:21:00,69.0,69.0,29.99,SE,125,5.0,8.0,100,0.03,,,0.00,,2013-05-26 09:21:00,
2013-05-26 04:33:00,69.0,69.0,29.98,SSE,148,6.0,6.0,100,0.03,,,0.00,,2013-05-26 09:33:00,
2013-05-26 04:42:00,69.0,69.0,29.98,SSE,148,6.0,6.0,100,0.03,,,0.00,,2013-05-26 09:42:00,
2013-05-26 04:53:00,68.0,68.0,29.97,SSE,166,5.0,6.0,100,0.03,,,0.00,,2013-05-26 09:53:00,
2013-05-26 05:02:00,66.0,66.0,29.96,SSE,167,8.0,8.0,100,0.03,,,0.00,,2013-05-26 10:02:00,
2013-05-26 05:12:00,66.0,66.0,29.96,SSE,167,8.0,8.0,100,0.03,,,0.00,,2013-05-26 10:12:00,
2013-05-26 05:23:00,65.0,65.0,29.95,SSE,149,14.0,14.0,100,0.03,,,0.00,,2013-05-26 10:23:00,
2013-05-26 05:32:00,64.0,64.0,29.93,SSE,156,15.0,15.0,100,0.03,,,0.00,,2013-05-26 10:32:00,
2013-05-26 05:42:00,64.0,64.0,29.89,East,89,16.0,16.0,100,0.00,,,0.00,,2013-05-26 10:42:00,
2013-05-26 05:52:00,64.0,64.0,29.89,East,89,16.0,16.0,100,0.00,,,0.00,,2013-05-26 10:52:00,
2013-05-26 06:03:00,64.0,64.0,29.88,SSE,167,17.0,17.0,100,0.00,,,0.00,,2013-05-26 11:03:00,
2013-05-26 06:11:00,64.0,64.0,29.88,SSE,167,17.0,17.0,100,0.00,,,0.00,,2013-05-26 11:11:00,
2013-05-26 06:22:00,63.0,63.0,29.93,SSE,163,12.0,16.0,100,0.00,,,0.00,,2013-05-26 11:22:00,
2013-05-26 06:32:00,63.0,63.0,29.91,South,172,12.0,13.0,100,0.00,,,0.00,,2013-05-26 11:32:00,
2013-05-26 06:42:00,63.0,63.0,29.91,South,172,12.0,13.0,100,0.00,,,0.00,,2013-05-26 11:42:00,
2013-05-26 06:52:00,63.0,63.0,29.93,SSE,165,8.0,8.0,100,0.00,,,0.00,,2013-05-26 11:52:00,
2013-05-26 07:01:00,63.0,63.0,29.93,ENE,68,3.0,3.0,100,0.00,,,0.00,,2013-05-26 12:01:00,
2013-05-26 07:11:00,63.0,63.0,29.93,ENE,68,3.0,3.0,100,0.00,,,0.00,,2013-05-26 12:11:00,
2013-05-26 07:21:00,64.0,64.0,29.91,South,172,7.0,7.0,100,0.00,,,0.00,,2013-05-26 12:21:00,
2013-05-26 07:32:00,64.0,64.0,29.90,SSE,153,6.0,7.0,100,0.00,,,0.00,,2013-05-26 12:32:00,
2013-05-26 07:42:00,64.0,64.0,29.90,SSE,153,6.0,7.0,100,0.00,,,0.00,,2013-05-26 12:42:00,
2013-05-26 07:52:00,64.0,64.0,29.90,SSW,193,6.0,6.0,100,0.00,,,0.00,,2013-05-26 12:52:00,
2013-05-26 08:02:00,64.0,64.0,29.89,SSW,211,7.0,7.0,100,0.00,,,0.00,,2013-05-26 13:02:00,
2013-05-26 08:11:00,64.0,64.0,29.89,SSW,211,7.0,7.0,100,0.00,,,0.00,,2013-05-26 13:11:00,
2013-05-26 08:21:00,65.0,65.0,29.93,NE,48,9.0,10.0,100,0.00,,,0.00,,2013-05-26 13:21:00,
2013-05-26 08:32:00,65.0,65.0,29.95,ENE,72,6.0,9.0,100,0.00,,,0.00,,2013-05-26 13:32:00,
2013-05-26 08:42:00,66.0,66.0,29.98,ENE,73,5.0,5.0,100,0.00,,,0.00,,2013-05-26 13:42:00,
2013-05-26 08:52:00,66.0,66.0,29.98,ENE,73,5.0,5.0,100,0.00,,,0.00,,2013-05-26 13:52:00,
2013-05-26 09:02:00,66.0,66.0,29.98,East,96,5.0,6.0,100,0.00,,,0.00,,2013-05-26 14:02:00,
2013-05-26 09:11:00,66.0,66.0,29.98,East,96,5.0,6.0,100,0.00,,,0.00,,2013-05-26 14:11:00,
2013-05-26 09:21:00,67.0,67.0,29.99,NE,51,4.0,5.0,100,0.00,,,0.00,,2013-05-26 14:21:00,
2013-05-26 09:32:00,69.0,69.0,30.00,SE,136,3.0,3.0,100,0.00,,,0.00,,2013-05-26 14:32:00,
2013-05-26 09:42:00,71.0,71.0,30.01,SSE,153,2.0,3.0,100,0.00,,,0.00,,2013-05-26 14:42:00,
2013-05-26 09:52:00,71.0,71.0,30.01,SSE,153,2.0,3.0,100,0.00,,,0.00,,2013-05-26 14:52:00,
2013-05-26 10:01:00,76.0,76.0,30.00,ESE,110,6.0,6.0,100,0.00,,,0.00,,2013-05-26 15:01:00,
2013-05-26 10:12:00,76.0,76.0,30.00,ESE,110,6.0,6.0,100,0.00,,,0.00,,2013-05-26 15:12:00,
2013-05-26 10:22:00,77.0,77.0,30.00,SE,143,7.0,7.0,100,0.00,,,0.00,,2013-05-26 15:22:00,
2013-05-26 10:33:00,80.0,80.0,30.01,SSE,158,6.0,9.0,100,0.00,,,0.00,,2013-05-26 15:33:00,
2013-05-26 10:43:00,78.0,78.0,30.01,WSW,246,5.0,7.0,100,0.00,,,0.00,,2013-05-26 15:43:00,
2013-05-26 10:53:00,78.0,78.0,30.01,WSW,246,5.0,7.0,100,0.00,,,0.00,,2013-05-26 15:53:00,
2013-05-26 11:03:00,77.0,77.0,30.00,South,174,0.0,3.0,100,0.00,,,0.00,,2013-05-26 16:03:00,
2013-05-26 11:12:00,79.0,79.0,30.00,SSW,201,1.0,3.0,100,0.00,,,0.00,,2013-05-26 16:12:00,
2013-05-26 11:23:00,79.0,79.0,30.00,SSW,201,1.0,3.0,100,0.00,,,0.00,,2013-05-26 16:23:00,
2013-05-26 11:33:00,82.0,82.0,30.01,SW,235,4.0,4.0,100,0.00,,,0.00,,2013-05-26 16:33:00,
2013-05-26 11:42:00,80.0,80.0,30.01,West,264,3.0,3.0,100,0.00,,,0.00,,2013-05-26 16:42:00,
2013-05-26 11:53:00,80.0,80.0,30.01,West,264,3.0,3.0,100,0.00,,,0.00,,2013-05-26 16:53:00,
2013-05-26 12:02:00,84.0,84.0,30.01,SSW,210,4.0,4.0,100,0.00,,,0.00,,2013-05-26 17:02:00,
2013-05-26 12:11:00,86.0,86.0,30.01,SSW,212,4.0,4.0,100,0.00,,,0.00,,2013-05-26 17:11:00,
2013-05-26 12:22:00,86.0,86.0,30.01,SSW,212,4.0,4.0,100,0.00,,,0.00,,2013-05-26 17:22:00,
2013-05-26 12:32:00,87.0,87.0,30.01,SSW,211,6.0,7.0,99,0.00,,,0.00,,2013-05-26 17:32:00,
2013-05-26 12:42:00,87.0,87.0,30.01,WSW,245,3.0,7.0,99,0.00,,,0.00,,2013-05-26 17:42:00,
2013-05-26 12:52:00,87.0,87.0,30.01,WSW,245,3.0,7.0,99,0.00,,,0.00,,2013-05-26 17:52:00,
2013-05-26 13:01:00,88.0,88.0,30.00,South,172,12.0,12.0,99,0.00,,,0.00,,2013-05-26 18:01:00,
2013-05-26 13:12:00,88.0,88.0,30.00,South,172,12.0,12.0,99,0.00,,,0.00,,2013-05-26 18:12:00,
2013-05-26 13:21:00,89.0,89.0,29.98,SSE,167,7.0,8.0,99,0.00,,,0.00,,2013-05-26 18:21:00,
2013-05-26 13:32:00,90.0,89.0,29.97,SW,219,9.0,9.0,98,0.00,,,0.00,,2013-05-26 18:32:00,
2013-05-26 13:42:00,91.0,90.0,29.97,SW,231,10.0,15.0,97,0.00,,,0.00,,2013-05-26 18:42:00,
2013-05-26 13:52:00,91.0,90.0,29.97,SW,231,10.0,15.0,97,0.00,,,0.00,,2013-05-26 18:52:00,
2013-05-26 15:32:00,97.0,76.0,29.93,SSE,148,14.0,14.0,51,0.00,,,0.06,,2013-05-26 20:32:00,
2013-05-26 15:41:00,96.0,72.0,29.92,SSE,167,9.0,10.0,47,0.00,,,0.06,,2013-05-26 20:41:00,
2013-05-26 15:52:00,96.0,72.0,29.92,SSE,167,9.0,10.0,47,0.00,,,0.06,,2013-05-26 20:52:00,
2013-05-26 16:01:00,97.0,74.0,29.92,East,100,13.0,13.0,48,0.00,,,0.06,,2013-05-26 21:01:00,
2013-05-26 16:11:00,97.0,74.0,29.92,East,100,13.0,13.0,48,0.00,,,0.06,,2013-05-26 21:11:00,
2013-05-26 16:22:00,96.0,72.0,29.92,South,170,10.0,10.0,47,0.00,,,0.06,,2013-05-26 21:22:00,
2013-05-26 16:33:00,96.0,72.0,29.91,SE,134,9.0,11.0,47,0.00,,,0.06,,2013-05-26 21:33:00,
2013-05-26 16:43:00,94.0,73.0,29.91,SSE,165,9.0,16.0,51,0.00,,,0.06,,2013-05-26 21:43:00,
2013-05-26 16:53:00,94.0,73.0,29.91,SSE,165,9.0,16.0,51,0.00,,,0.06,,2013-05-26 21:53:00,
2013-05-26 17:02:00,94.0,73.0,29.91,South,172,9.0,13.0,51,0.00,,,0.06,,2013-05-26 22:02:00,
2013-05-26 17:12:00,94.0,73.0,29.91,South,172,9.0,13.0,51,0.00,,,0.06,,2013-05-26 22:12:00,
2013-05-26 17:23:00,94.0,72.0,29.90,SSE,159,12.0,12.0,50,0.00,,,0.06,,2013-05-26 22:23:00,
2013-05-26 17:33:00,93.0,72.0,29.90,SSE,152,11.0,11.0,51,0.00,,,0.06,,2013-05-26 22:33:00,
2013-05-26 17:42:00,93.0,73.0,29.89,SSE,159,10.0,14.0,52,0.00,,,0.06,,2013-05-26 22:42:00,
2013-05-26 17:53:00,93.0,73.0,29.89,SSE,159,10.0,14.0,52,0.00,,,0.06,,2013-05-26 22:53:00,
2013-05-26 18:02:00,93.0,73.0,29.88,SE,128,9.0,9.0,52,0.00,,,0.06,,2013-05-26 23:02:00,
2013-05-26 18:11:00,93.0,73.0,29.88,SE,128,9.0,9.0,52,0.00,,,0.06,,2013-05-26 23:11:00,
2013-05-26 18:22:00,92.0,71.0,29.87,SE,128,10.0,10.0,51,0.00,,,0.06,,2013-05-26 23:22:00,
2013-05-26 18:32:00,91.0,71.0,29.87,SE,145,9.0,13.0,52,0.00,,,0.06,,2013-05-26 23:32:00,
2013-05-26 18:43:00,90.0,71.0,29.87,SSE,149,10.0,10.0,53,0.00,,,0.06,,2013-05-26 23:43:00,
2013-05-26 18:52:00,90.0,71.0,29.87,SSE,149,10.0,10.0,53,0.00,,,0.06,,2013-05-26 23:52:00,
2013-05-26 19:02:00,90.0,71.0,29.87,South,180,11.0,11.0,54,0.00,,,0.06,,2013-05-27 00:02:00,
2013-05-26 19:11:00,90.0,71.0,29.87,South,180,11.0,11.0,54,0.00,,,0.06,,2013-05-27 00:11:00,
2013-05-26 19:21:00,89.0,71.0,29.86,South,169,9.0,9.0,55,0.00,,,0.06,,2013-05-27 00:21:00,
2013-05-26 19:32:00,88.0,70.0,29.86,SE,136,10.0,10.0,56,0.00,,,0.06,,2013-05-27 00:32:00,
2013-05-26 19:41:00,87.0,70.0,29.87,SSE,148,12.0,12.0,57,0.00,,,0.06,,2013-05-27 00:41:00,
2013-05-26 19:52:00,87.0,70.0,29.87,SSE,148,12.0,12.0,57,0.00,,,0.06,,2013-05-27 00:52:00,
2013-05-26 20:01:00,86.0,70.0,29.87,SE,146,10.0,10.0,59,0.00,,,0.06,,2013-05-27 01:01:00,
2013-05-26 20:11:00,86.0,70.0,29.87,SE,146,10.0,10.0,59,0.00,,,0.06,,2013-05-27 01:11:00,
2013-05-26 20:22:00,84.0,70.0,29.87,SSE,162,10.0,15.0,63,0.00,,,0.06,,2013-05-27 01:22:00,
2013-05-26 20:31:00,82.0,70.0,29.87,SE,132,10.0,10.0,67,0.00,,,0.06,,2013-05-27 01:31:00,
2013-05-26 20:42:00,81.0,70.0,29.88,ESE,121,8.0,10.0,69,0.00,,,0.06,,2013-05-27 01:42:00,
2013-05-26 20:52:00,81.0,70.0,29.88,ESE,121,8.0,10.0,69,0.00,,,0.06,,2013-05-27 01:52:00,
2013-05-26 21:01:00,80.0,70.0,29.88,South,169,8.0,8.0,72,0.00,,,0.06,,2013-05-27 02:01:00,
2013-05-26 21:11:00,80.0,70.0,29.88,South,169,8.0,8.0,72,0.00,,,0.06,,2013-05-27 02:11:00,
2013-05-26 21:21:00,79.0,70.0,29.89,SSE,148,5.0,5.0,75,0.00,,,0.06,,2013-05-27 02:21:00,
2013-05-26 21:32:00,78.0,70.0,29.89,SSE,158,7.0,7.0,77,0.00,,,0.06,,2013-05-27 02:32:00,
2013-05-26 21:42:00,78.0,71.0,29.90,SSE,152,8.0,9.0,79,0.00,,,0.06,,2013-05-27 02:42:00,
2013-05-26 21:52:00,78.0,71.0,29.90,SSE,152,8.0,9.0,79,0.00,,,0.06,,2013-05-27 02:52:00,
2013-05-26 22:02:00,77.0,71.0,29.90,SSE,166,9.0,9.0,81,0.00,,,0.06,,2013-05-27 03:02:00,
2013-05-26 22:11:00,77.0,71.0,29.90,SSE,166,9.0,9.0,81,0.00,,,0.06,,2013-05-27 03:11:00,
2013-05-26 22:21:00,77.0,71.0,29.91,SSE,156,9.0,12.0,82,0.00,,,0.06,,2013-05-27 03:21:00,
2013-05-26 22:33:00,77.0,72.0,29.91,SSW,193,10.0,10.0,84,0.00,,,0.06,,2013-05-27 03:33:00,
2013-05-26 22:42:00,76.0,71.0,29.92,SE,143,8.0,11.0,85,0.00,,,0.06,,2013-05-27 03:42:00,
2013-05-26 22:53:00,76.0,71.0,29.92,SE,143,8.0,11.0,85,0.00,,,0.06,,2013-05-27 03:53:00,
2013-05-26 23:02:00,75.0,71.0,29.93,South,172,10.0,10.0,86,0.00,,,0.06,,2013-05-27 04:02:00,
2013-05-26 23:12:00,75.0,71.0,29.93,South,172,10.0,10.0,86,0.00,,,0.06,,2013-05-27 04:12:00,
2013-05-26 23:23:00,75.0,71.0,29.93,SSE,148,12.0,12.0,87,0.00,,,0.06,,2013-05-27 04:23:00,
2013-05-26 23:33:00,74.0,70.0,29.93,South,172,10.0,10.0,88,0.00,,,0.06,,2013-05-27 04:33:00,
2013-05-26 23:42:00,73.0,70.0,29.92,South,170,8.0,9.0,89,0.00,,,0.06,,2013-05-27 04:42:00,
2013-05-26 23:52:00,73.0,70.0,29.92,South,170,8.0,9.0,89,0.00,,,0.06,,2013-05-27 04:52:00,